Time;durP1;ratioP1;P1;durP2;ratioP2;P2;SDS_P1;SDS_P2;PMS_P1;PMS_P2;Temp;Humidity;BMP_temperature;BMP_pressure;BME280_temperature;BME280_humidity;BME280_pressure;Samples;Min_cycle;Max_cycle;Signal;HPM_P1;HPM_P2
2023/12/15 00:00:30;;;;;;;0.90;0.80;;;;;;;-141.97;nan;45935.69;4934615;29;20285;-89
2023/12/15 00:02:56;;;;;;;3.20;0.90;;;;;;;-141.97;nan;46416.00;4934906;29;20276;-89
2023/12/15 00:05:21;;;;;;;3.60;0.80;;;;;;;-141.97;nan;46035.59;4935076;29;20183;-90
2023/12/15 00:07:47;;;;;;;0.67;0.60;;;;;;;-141.97;nan;45949.13;4934430;29;20193;-89
2023/12/15 00:10:12;;;;;;;1.00;0.70;;;;;;;-141.97;nan;46454.44;4950717;29;20277;-89
2023/12/15 00:12:38;;;;;;;1.00;0.70;;;;;;;-141.97;nan;46531.28;4934433;29;20531;-89
2023/12/15 00:15:04;;;;;;;0.90;0.73;;;;;;;-141.97;nan;46039.44;4935212;29;20240;-91
2023/12/15 00:17:29;;;;;;;1.67;0.80;;;;;;;-141.97;nan;45977.94;4933720;29;20170;-90
2023/12/15 00:19:54;;;;;;;1.00;0.80;;;;;;;-141.97;nan;45981.78;4930646;29;20201;-88
2023/12/15 00:22:20;;;;;;;0.87;0.60;;;;;;;-141.97;nan;45958.75;4914718;29;20253;-89
2023/12/15 00:24:45;;;;;;;1.07;0.90;;;;;;;-141.97;nan;46024.06;4915556;29;20548;-89
2023/12/15 00:27:11;;;;;;;0.80;0.80;;;;;;;-141.97;nan;46172.00;4914212;29;20224;-87
2023/12/15 00:29:36;;;;;;;1.00;0.80;;;;;;;-141.97;nan;45999.09;4917269;29;20178;-90
2023/12/15 00:32:02;;;;;;;0.73;0.60;;;;;;;-141.97;nan;46429.47;4916655;29;20629;-87
2023/12/15 00:34:27;;;;;;;1.80;0.60;;;;;;;-141.97;nan;46079.78;4916278;29;20174;-89
2023/12/15 00:36:52;;;;;;;1.23;0.70;;;;;;;-141.97;nan;46143.19;4932080;29;20634;-88
2023/12/15 00:39:18;;;;;;;1.00;0.70;;;;;;;-141.97;nan;45916.47;4916514;29;20186;-88
2023/12/15 00:41:43;;;;;;;0.70;0.60;;;;;;;-141.97;nan;46519.75;4914825;29;20174;-89
2023/12/15 00:44:09;;;;;;;0.90;0.53;;;;;;;-141.97;nan;46389.09;4930672;29;20246;-90
2023/12/15 00:46:34;;;;;;;0.70;0.70;;;;;;;-141.97;nan;45979.88;4914691;29;20189;-86
2023/12/15 00:48:59;;;;;;;0.57;0.50;;;;;;;-141.97;nan;46125.88;4916599;29;20196;-89
2023/12/15 00:51:26;;;;;;;0.80;0.60;;;;;;;-141.97;nan;46147.03;4930698;29;20679;-88
2023/12/15 00:53:51;;;;;;;0.50;0.50;;;;;;;-141.97;nan;46070.16;4916552;29;20212;-88
2023/12/15 00:56:16;;;;;;;0.60;0.60;;;;;;;-141.97;nan;46070.16;4930648;29;20178;-89
2023/12/15 00:58:42;;;;;;;2.10;0.90;;;;;;;-141.97;nan;46054.81;4914618;29;20189;-88
2023/12/15 01:01:07;;;;;;;1.13;0.83;;;;;;;-141.97;nan;46504.38;4920404;29;20552;-88
2023/12/15 01:03:33;;;;;;;2.00;1.00;;;;;;;-141.97;nan;46465.97;4916459;29;20162;-88
2023/12/15 01:05:58;;;;;;;1.17;0.70;;;;;;;-141.97;nan;46047.13;4914870;29;20186;-89
2023/12/15 01:08:24;;;;;;;0.67;0.50;;;;;;;-141.97;nan;46001.00;4915107;29;20213;-89
2023/12/15 01:10:50;;;;;;;1.50;1.00;;;;;;;-141.97;nan;46123.97;4915418;29;20599;-89
2023/12/15 01:13:15;;;;;;;1.70;1.10;;;;;;;-141.97;nan;46143.19;4914348;29;20225;-89
2023/12/15 01:15:41;;;;;;;0.60;0.60;;;;;;;-141.97;nan;46043.28;4915407;29;20178;-88
2023/12/15 01:18:06;;;;;;;1.63;1.03;;;;;;;-141.97;nan;46093.22;4914431;29;20185;-88
2023/12/15 01:20:32;;;;;;;1.40;0.90;;;;;;;-141.97;nan;46514.00;4913930;29;20189;-88
2023/12/15 01:22:57;;;;;;;1.67;0.90;;;;;;;-141.97;nan;45968.34;4914435;29;20555;-89
2023/12/15 01:25:23;;;;;;;1.67;0.70;;;;;;;-141.97;nan;45970.25;4929611;29;20178;-89
2023/12/15 01:27:48;;;;;;;2.17;1.00;;;;;;;-141.97;nan;46464.03;4914998;29;20572;-89
2023/12/15 01:30:14;;;;;;;0.57;0.33;;;;;;;-141.97;nan;46062.47;4915230;29;20599;-89
2023/12/15 01:32:39;;;;;;;0.63;0.50;;;;;;;-141.97;nan;46562.03;4913785;29;20256;-89
2023/12/15 01:35:05;;;;;;;1.33;0.80;;;;;;;-141.97;nan;46479.41;4914659;29;20178;-88
2023/12/15 01:37:31;;;;;;;2.00;0.70;;;;;;;-141.97;nan;46125.88;4915881;29;20177;-88
2023/12/15 01:39:56;;;;;;;1.20;0.83;;;;;;;-141.97;nan;46091.31;4931602;29;20189;-88
2023/12/15 01:42:21;;;;;;;1.07;0.90;;;;;;;-141.97;nan;46487.09;4914749;29;20166;-88
2023/12/15 01:44:47;;;;;;;0.90;0.80;;;;;;;-141.97;nan;46490.94;4915199;29;20253;-88
2023/12/15 01:47:14;;;;;;;0.87;0.80;;;;;;;-141.97;nan;46458.28;4913492;29;20670;-88
2023/12/15 01:49:40;;;;;;;2.00;0.90;;;;;;;-141.97;nan;46143.19;4913462;29;20264;-88
2023/12/15 01:52:06;;;;;;;0.80;0.70;;;;;;;-141.97;nan;46141.25;4913323;29;20272;-87
2023/12/15 01:54:31;;;;;;;3.17;1.13;;;;;;;-141.97;nan;46043.28;4914758;29;20174;-89
2023/12/15 01:56:57;;;;;;;0.63;0.60;;;;;;;-141.97;nan;46087.47;4914360;29;20166;-88
2023/12/15 01:59:22;;;;;;;2.97;0.43;;;;;;;-141.97;nan;46329.53;4914039;29;20178;-88
2023/12/15 02:01:48;;;;;;;1.33;0.80;;;;;;;-141.97;nan;45870.38;4913603;29;20174;-88
2023/12/15 02:04:13;;;;;;;0.60;0.50;;;;;;;-141.97;nan;46116.28;4915026;29;20182;-88
2023/12/15 02:06:39;;;;;;;1.10;0.60;;;;;;;-141.97;nan;45977.94;4913604;29;20173;-88
2023/12/15 02:09:04;;;;;;;1.20;0.60;;;;;;;-141.97;nan;45981.78;4913473;29;20209;-88
2023/12/15 02:11:30;;;;;;;0.60;0.60;;;;;;;-141.97;nan;46540.91;4914868;29;20170;-88
2023/12/15 02:13:55;;;;;;;1.60;0.50;;;;;;;-141.97;nan;46008.69;4929517;29;20178;-89
2023/12/15 02:16:21;;;;;;;0.70;0.50;;;;;;;-141.97;nan;46448.66;4913409;29;20233;-90
2023/12/15 02:18:46;;;;;;;1.57;0.80;;;;;;;-141.97;nan;46110.50;4913098;29;20295;-89
2023/12/15 02:21:11;;;;;;;0.73;0.60;;;;;;;-141.97;nan;46089.38;4914181;29;20170;-89
2023/12/15 02:23:37;;;;;;;1.70;0.60;;;;;;;-141.97;nan;46031.75;4916217;29;20251;-89
2023/12/15 02:26:03;;;;;;;2.20;1.10;;;;;;;-141.97;nan;45968.34;4932812;29;20193;-88
2023/12/15 02:28:28;;;;;;;1.03;0.67;;;;;;;-141.97;nan;46001.00;4935655;29;20228;-88
2023/12/15 02:30:54;;;;;;;1.17;0.97;;;;;;;-141.97;nan;46010.63;4928587;29;20178;-88
2023/12/15 02:33:19;;;;;;;1.73;0.63;;;;;;;-141.97;nan;45901.09;4922796;29;20170;-89
2023/12/15 02:35:47;;;;;;;1.73;0.90;;;;;;;-141.97;nan;46481.34;4923843;29;20181;-88
2023/12/15 02:38:18;;;;;;;0.90;0.60;;;;;;;-141.97;nan;45999.09;4913507;29;20173;-88
2023/12/15 02:40:44;;;;;;;1.20;0.70;;;;;;;-141.97;nan;46145.09;4929266;29;20635;-88
2023/12/15 02:43:10;;;;;;;1.43;0.80;;;;;;;-141.97;nan;46077.84;4913368;29;20188;-88
2023/12/15 02:45:37;;;;;;;0.40;0.40;;;;;;;-141.97;nan;46638.91;4914915;29;20177;-88
2023/12/15 02:48:03;;;;;;;2.43;0.90;;;;;;;-141.97;nan;46031.75;4914644;29;20205;-87
2023/12/15 02:50:28;;;;;;;1.33;0.60;;;;;;;-141.97;nan;46081.69;4914520;29;20261;-87
2023/12/15 02:52:54;;;;;;;1.03;0.67;;;;;;;-141.97;nan;46387.19;4913638;29;20162;-90
2023/12/15 02:55:19;;;;;;;1.20;0.70;;;;;;;-141.97;nan;46402.56;4915002;29;20560;-87
2023/12/15 02:57:45;;;;;;;1.90;0.30;;;;;;;-141.97;nan;45872.28;4918613;29;20280;-87
2023/12/15 03:00:11;;;;;;;1.03;0.70;;;;;;;-141.97;nan;45951.06;4918764;29;20616;-87
2023/12/15 03:02:37;;;;;;;0.60;0.50;;;;;;;-141.97;nan;46271.91;4917095;29;20174;-88
2023/12/15 03:05:02;;;;;;;1.00;0.63;;;;;;;-141.97;nan;46095.16;4933227;29;20185;-88
2023/12/15 03:07:28;;;;;;;0.77;0.60;;;;;;;-141.97;nan;46070.16;4918281;29;20204;-88
2023/12/15 03:09:53;;;;;;;1.33;0.70;;;;;;;-141.97;nan;46020.22;4918197;29;20170;-87
2023/12/15 03:12:18;;;;;;;0.83;0.57;;;;;;;-141.97;nan;46514.00;4917027;29;20181;-87
2023/12/15 03:14:44;;;;;;;1.47;0.90;;;;;;;-141.97;nan;46095.16;4918061;29;20311;-87
2023/12/15 03:17:09;;;;;;;0.93;0.57;;;;;;;-141.97;nan;46108.59;4923339;29;20162;-86
2023/12/15 03:19:38;;;;;;;1.90;0.70;;;;;;;-141.97;nan;45947.22;4953196;29;20190;-88
2023/12/15 03:22:04;;;;;;;1.20;0.70;;;;;;;-141.97;nan;46070.16;4934951;29;20261;-87
2023/12/15 03:24:29;;;;;;;1.03;0.70;;;;;;;-141.97;nan;46573.56;4942147;29;20206;-88
2023/12/15 03:26:54;;;;;;;1.20;0.63;;;;;;;-141.97;nan;46093.22;4928394;29;20237;-86
2023/12/15 03:29:21;;;;;;;1.70;0.90;;;;;;;-141.97;nan;46189.28;4923878;29;20256;-87
2023/12/15 03:31:46;;;;;;;3.60;1.27;;;;;;;-141.97;nan;45947.22;4921324;29;20265;-87
2023/12/15 03:34:12;;;;;;;0.90;0.70;;;;;;;-141.97;nan;46074.00;4919700;29;20620;-87
2023/12/15 03:36:38;;;;;;;1.03;0.70;;;;;;;-141.97;nan;45910.72;4920378;29;20304;-87
2023/12/15 03:39:07;;;;;;;1.73;0.77;;;;;;;-141.97;nan;45860.75;4917873;29;20206;-87
2023/12/15 03:41:33;;;;;;;0.73;0.67;;;;;;;-141.97;nan;46569.72;4918168;29;20650;-88
2023/12/15 03:43:59;;;;;;;2.13;1.00;;;;;;;-141.97;nan;46462.13;4919547;29;20244;-87
2023/12/15 03:46:24;;;;;;;1.70;0.70;;;;;;;-141.97;nan;45920.31;4918606;29;20170;-86
2023/12/15 03:48:50;;;;;;;1.27;0.80;;;;;;;-141.97;nan;46558.19;4932424;29;20194;-86
2023/12/15 03:51:15;;;;;;;1.33;0.73;;;;;;;-141.97;nan;46500.56;4917787;29;20181;-85
2023/12/15 03:53:41;;;;;;;1.47;1.00;;;;;;;-141.97;nan;45960.66;4932255;29;20198;-86
2023/12/15 03:56:07;;;;;;;2.60;1.20;;;;;;;-141.97;nan;46139.34;4917461;29;20166;-88
2023/12/15 03:58:33;;;;;;;1.30;0.90;;;;;;;-141.97;nan;46548.59;4916069;29;20517;-88
2023/12/15 04:00:58;;;;;;;1.93;1.00;;;;;;;-141.97;nan;46064.41;4918263;29;20167;-89
2023/12/15 04:03:24;;;;;;;1.47;0.80;;;;;;;-141.97;nan;45999.09;4932387;29;20686;-90
2023/12/15 04:05:49;;;;;;;1.87;1.00;;;;;;;-141.97;nan;46571.66;4916356;29;20217;-89
2023/12/15 04:08:14;;;;;;;1.10;1.00;;;;;;;-141.97;nan;46508.22;4918718;29;20194;-90
2023/12/15 04:10:40;;;;;;;1.77;1.20;;;;;;;-141.97;nan;46210.41;4917264;29;20204;-88
2023/12/15 04:13:06;;;;;;;2.60;1.57;;;;;;;-141.97;nan;46039.44;4917099;29;20599;-89
2023/12/15 04:15:31;;;;;;;3.47;1.70;;;;;;;-141.97;nan;46056.72;4917292;29;20276;-88
2023/12/15 04:17:57;;;;;;;3.23;1.50;;;;;;;-141.97;nan;46216.19;4916289;29;20623;-89
2023/12/15 04:20:22;;;;;;;2.67;1.70;;;;;;;-141.97;nan;46227.72;4917964;29;20182;-89
2023/12/15 04:22:48;;;;;;;2.10;1.50;;;;;;;-141.97;nan;46085.53;4915705;29;20201;-90
2023/12/15 04:25:14;;;;;;;5.40;2.90;;;;;;;-141.97;nan;46633.13;4916781;29;20166;-90
2023/12/15 04:27:39;;;;;;;10.80;5.87;;;;;;;-141.97;nan;46206.56;4916699;29;20233;-89
2023/12/15 04:30:05;;;;;;;3.07;1.80;;;;;;;-141.97;nan;46085.53;4916671;29;20181;-89
2023/12/15 04:32:31;;;;;;;7.93;3.00;;;;;;;-141.97;nan;46125.88;4916696;29;20197;-90
2023/12/15 04:34:56;;;;;;;8.93;3.53;;;;;;;-141.97;nan;46644.66;4915274;29;20181;-89
2023/12/15 04:37:21;;;;;;;3.00;1.90;;;;;;;-141.97;nan;46116.28;4915606;29;20312;-90
2023/12/15 04:39:47;;;;;;;4.10;1.70;;;;;;;-141.97;nan;46575.50;4916667;29;20616;-91
2023/12/15 04:42:13;;;;;;;5.43;2.40;;;;;;;-141.97;nan;46229.63;4915354;29;20170;-89
2023/12/15 04:44:38;;;;;;;5.33;2.20;;;;;;;-141.97;nan;46070.16;4916539;29;20170;-90
2023/12/15 04:47:04;;;;;;;5.57;2.97;;;;;;;-141.97;nan;46214.25;4914843;29;20177;-91
2023/12/15 04:49:29;;;;;;;5.20;3.20;;;;;;;-141.97;nan;46139.34;4915261;29;20545;-88
2023/12/15 04:51:55;;;;;;;2.77;2.13;;;;;;;-141.97;nan;46223.88;4914942;29;20170;-89
2023/12/15 04:54:20;;;;;;;2.93;1.90;;;;;;;-141.97;nan;46193.13;4916369;29;20174;-85
2023/12/15 04:56:45;;;;;;;4.43;2.47;;;;;;;-141.97;nan;46546.66;4916234;29;20181;-87
2023/12/15 04:59:11;;;;;;;2.83;1.87;;;;;;;-141.97;nan;46062.47;4930935;29;20166;-86
2023/12/15 05:01:36;;;;;;;3.33;2.13;;;;;;;-141.97;nan;46129.72;4915880;29;20652;-87
2023/12/15 05:04:02;;;;;;;2.97;1.90;;;;;;;-141.97;nan;46050.97;4915931;29;20559;-88
2023/12/15 05:06:28;;;;;;;3.97;2.60;;;;;;;-141.97;nan;46469.81;4915900;29;20245;-88
2023/12/15 05:08:53;;;;;;;5.40;3.20;;;;;;;-141.97;nan;46064.41;4915966;29;20686;-88
2023/12/15 05:11:19;;;;;;;4.03;2.13;;;;;;;-141.97;nan;46220.03;4916746;29;20162;-87
2023/12/15 05:13:45;;;;;;;3.87;2.20;;;;;;;-141.97;nan;46196.97;4914171;29;20240;-89
2023/12/15 05:16:11;;;;;;;2.83;1.60;;;;;;;-141.97;nan;46216.19;4914926;29;20174;-88
2023/12/15 05:18:37;;;;;;;3.20;2.47;;;;;;;-141.97;nan;46214.25;4915282;29;20196;-87
2023/12/15 05:21:03;;;;;;;4.43;2.30;;;;;;;-141.97;nan;46100.91;4916263;29;20198;-89
2023/12/15 05:23:29;;;;;;;4.00;1.97;;;;;;;-141.97;nan;46531.28;4930406;29;20701;-86
2023/12/15 05:25:54;;;;;;;4.07;2.80;;;;;;;-141.97;nan;46054.81;4914960;29;20174;-88
2023/12/15 05:28:20;;;;;;;6.07;3.67;;;;;;;-141.97;nan;46100.91;4915594;29;20332;-88
2023/12/15 05:30:45;;;;;;;3.20;2.30;;;;;;;-141.97;nan;46369.88;4914093;29;20584;-88
2023/12/15 05:33:11;;;;;;;4.80;2.90;;;;;;;-141.97;nan;46074.00;4915512;29;20197;-88
2023/12/15 05:35:36;;;;;;;4.53;2.50;;;;;;;-141.97;nan;46039.44;4930208;29;20186;-89
2023/12/15 05:38:02;;;;;;;49.53;20.77;;;;;;;-141.97;nan;46216.19;4917620;29;20169;-87
2023/12/15 05:40:28;;;;;;;34.73;16.77;;;;;;;-141.97;nan;46367.97;4915301;29;20193;-88
2023/12/15 05:42:54;;;;;;;5.87;3.87;;;;;;;-141.97;nan;46510.16;4915034;29;20162;-87
2023/12/15 05:45:20;;;;;;;4.50;2.40;;;;;;;-141.97;nan;46056.72;4914713;29;20170;-89
2023/12/15 05:47:46;;;;;;;11.37;4.47;;;;;;;-141.97;nan;46606.22;4913816;29;20210;-89
2023/12/15 05:50:12;;;;;;;9.60;4.47;;;;;;;-141.97;nan;46229.63;4914988;29;20190;-89
2023/12/15 05:52:37;;;;;;;4.80;3.17;;;;;;;-141.97;nan;46052.88;4914926;29;20185;-88
2023/12/15 05:55:03;;;;;;;7.77;4.73;;;;;;;-141.97;nan;46047.13;4913954;29;20265;-87
2023/12/15 05:57:28;;;;;;;5.00;2.30;;;;;;;-141.97;nan;46002.94;4929656;29;20178;-90
2023/12/15 05:59:54;;;;;;;3.90;2.40;;;;;;;-141.97;nan;46123.97;4913758;29;20230;-88
2023/12/15 06:02:19;;;;;;;5.27;3.40;;;;;;;-141.97;nan;45985.63;4916602;29;20162;-89
2023/12/15 06:04:44;;;;;;;6.40;4.53;;;;;;;-141.97;nan;46008.69;4919544;29;20190;-89
2023/12/15 06:07:10;;;;;;;3.33;2.00;;;;;;;-141.97;nan;46471.72;4918916;29;20181;-87
2023/12/15 06:09:36;;;;;;;3.07;2.07;;;;;;;-141.97;nan;46191.22;4914371;29;20182;-86
2023/12/15 06:12:02;;;;;;;3.07;2.30;;;;;;;-141.97;nan;46020.22;4914233;29;20170;-87
2023/12/15 06:14:28;;;;;;;4.03;2.33;;;;;;;-141.97;nan;46535.13;4914116;29;20196;-86
2023/12/15 06:16:53;;;;;;;5.53;3.17;;;;;;;-141.97;nan;46189.28;4914206;29;20169;-85
2023/12/15 06:19:18;;;;;;;5.37;3.93;;;;;;;-141.97;nan;46062.47;4928455;29;20178;-87
2023/12/15 06:21:44;;;;;;;12.53;7.17;;;;;;;-141.97;nan;46371.81;4928546;29;20178;-87
2023/12/15 06:24:09;;;;;;;8.50;5.57;;;;;;;-141.97;nan;46022.13;4913910;29;20235;-86
2023/12/15 06:26:35;;;;;;;4.77;3.30;;;;;;;-141.97;nan;46177.75;4914235;29;20169;-87
2023/12/15 06:29:00;;;;;;;8.03;6.17;;;;;;;-141.97;nan;46243.09;4913017;29;20221;-88
2023/12/15 06:31:25;;;;;;;7.17;3.00;;;;;;;-141.97;nan;46181.59;4914150;29;20178;-88
2023/12/15 06:33:52;;;;;;;3.47;1.93;;;;;;;-141.97;nan;46027.91;4915454;29;20177;-88
2023/12/15 06:36:18;;;;;;;3.93;2.27;;;;;;;-141.97;nan;46212.34;4915944;29;20234;-89
2023/12/15 06:38:44;;;;;;;2.87;1.77;;;;;;;-141.97;nan;46615.84;4915878;29;20208;-88
2023/12/15 06:41:11;;;;;;;4.23;2.40;;;;;;;-141.97;nan;46141.25;4915610;29;20207;-86
2023/12/15 06:43:41;;;;;;;2.57;1.90;;;;;;;-141.97;nan;46062.47;4914851;29;20244;-87
2023/12/15 06:46:06;;;;;;;4.23;2.53;;;;;;;-141.97;nan;46208.50;4913192;29;20241;-88
2023/12/15 06:48:32;;;;;;;5.07;3.17;;;;;;;-141.97;nan;46200.81;4913000;29;20205;-87
2023/12/15 06:50:58;;;;;;;5.93;4.07;;;;;;;-141.97;nan;46223.88;4914179;29;20233;-87
2023/12/15 06:53:23;;;;;;;4.97;3.20;;;;;;;-141.97;nan;46054.81;4914876;29;20162;-89
2023/12/15 06:55:48;;;;;;;24.00;15.07;;;;;;;-141.97;nan;46306.50;4915015;29;20184;-90
2023/12/15 06:58:14;;;;;;;23.07;13.67;;;;;;;-141.97;nan;46181.59;4916532;29;20638;-91
2023/12/15 07:00:40;;;;;;;15.03;8.30;;;;;;;-141.97;nan;46204.66;4914154;29;20192;-89
2023/12/15 07:03:05;;;;;;;14.77;8.43;;;;;;;-141.97;nan;46150.84;4914994;29;20169;-88
2023/12/15 07:05:31;;;;;;;16.97;11.97;;;;;;;-141.97;nan;46027.91;4914465;29;20170;-89
2023/12/15 07:07:56;;;;;;;46.77;24.90;;;;;;;-141.97;nan;46029.81;4915069;29;20285;-90
2023/12/15 07:10:22;;;;;;;18.27;9.33;;;;;;;-141.97;nan;46540.91;4916469;29;20170;-89
2023/12/15 07:12:47;;;;;;;16.00;8.87;;;;;;;-141.97;nan;46070.16;4916494;29;20235;-90
2023/12/15 07:15:13;;;;;;;12.67;6.57;;;;;;;-141.97;nan;46590.84;4913334;29;20170;-88
2023/12/15 07:17:39;;;;;;;9.47;5.60;;;;;;;-141.97;nan;46181.59;4920677;29;20582;-88
2023/12/15 07:20:05;;;;;;;17.27;10.00;;;;;;;-141.97;nan;46043.28;4949413;29;20178;-87
2023/12/15 07:22:30;;;;;;;44.57;21.63;;;;;;;-141.97;nan;46043.28;4916632;29;20246;-89
2023/12/15 07:24:56;;;;;;;24.17;12.97;;;;;;;-141.97;nan;46074.00;4914102;29;20640;-89
2023/12/15 07:27:21;;;;;;;11.23;5.63;;;;;;;-141.97;nan;46331.47;4912162;29;20238;-89
2023/12/15 07:29:47;;;;;;;11.00;6.73;;;;;;;-141.97;nan;46496.72;4912876;29;20201;-88
2023/12/15 07:32:12;;;;;;;10.60;6.57;;;;;;;-141.97;nan;46638.91;4913270;29;20548;-89
2023/12/15 07:34:37;;;;;;;12.27;7.70;;;;;;;-141.97;nan;46141.25;4915583;29;20638;-89
2023/12/15 07:37:03;;;;;;;12.90;8.30;;;;;;;-141.97;nan;46162.38;4914212;29;20249;-90
2023/12/15 07:39:28;;;;;;;16.53;9.10;;;;;;;-141.97;nan;45993.31;4933936;29;20182;-89
2023/12/15 07:41:55;;;;;;;13.77;8.53;;;;;;;-141.97;nan;46688.84;4937986;29;20166;-87
2023/12/15 07:44:21;;;;;;;11.00;6.13;;;;;;;-141.97;nan;46239.25;4931500;29;20273;-89
2023/12/15 07:46:46;;;;;;;12.40;6.70;;;;;;;-141.97;nan;46116.28;4917170;29;20245;-89
2023/12/15 07:55:48;;;;;;;8.53;4.20;;;;;;;-141.97;100.00;46187.38;5118422;27;20586;-89
2023/12/15 07:58:14;;;;;;;19.97;10.47;;;;;;;-141.97;100.00;46316.09;5087608;28;20248;-89
2023/12/15 08:00:40;;;;;;;16.03;9.10;;;;;;;-141.97;100.00;46512.06;5087254;28;20173;-89
2023/12/15 08:03:05;;;;;;;16.43;8.50;;;;;;;-141.97;100.00;46208.50;5074632;28;20176;-90
2023/12/15 08:05:32;;;;;;;16.80;8.23;;;;;;;-141.97;100.00;46227.72;5050016;28;20599;-89
2023/12/15 08:07:57;;;;;;;20.67;10.20;;;;;;;-141.97;100.00;46031.75;5048344;28;20557;-90
2023/12/15 08:10:26;;;;;;;25.33;12.70;;;;;;;-141.97;100.00;46058.63;5046210;28;20184;-89
2023/12/15 08:12:52;;;;;;;27.73;11.37;;;;;;;-141.97;100.00;46294.97;5048397;28;20166;-87
2023/12/15 08:15:17;;;;;;;23.07;11.97;;;;;;;-141.97;100.00;46596.63;5048907;28;20201;-89
2023/12/15 08:17:43;;;;;;;18.80;8.87;;;;;;;-141.97;100.00;46196.97;5047840;28;20680;-89
2023/12/15 08:20:09;;;;;;;35.90;16.17;;;;;;;-141.97;100.00;46127.81;5048632;28;20196;-89
2023/12/15 08:22:34;;;;;;;14.20;8.40;;;;;;;-141.97;100.00;46120.13;5046923;28;20327;-89
2023/12/15 08:25:00;;;;;;;22.00;13.80;;;;;;;-141.97;100.00;46016.38;5046241;28;20189;-88
2023/12/15 08:27:25;;;;;;;26.60;14.37;;;;;;;-141.97;100.00;46085.53;5046236;28;20178;-89
2023/12/15 08:29:51;;;;;;;36.83;17.37;;;;;;;-141.97;100.00;46227.72;5054521;28;20162;-90
2023/12/15 08:32:16;;;;;;;18.37;10.03;;;;;;;-141.97;100.00;46596.63;5048065;28;20161;-88
2023/12/15 08:34:42;;;;;;;14.87;8.53;;;;;;;-141.97;100.00;46112.44;5048489;28;20209;-89
2023/12/15 08:37:07;;;;;;;13.23;7.53;;;;;;;-141.97;100.00;46223.88;5048607;28;20227;-87
2023/12/15 08:39:33;;;;;;;15.40;7.30;;;;;;;-141.97;100.00;46204.66;5045749;28;20189;-89
2023/12/15 08:41:58;;;;;;;15.10;9.00;;;;;;;-141.97;100.00;46091.31;5047846;28;20193;-87
2023/12/15 08:44:23;;;;;;;13.87;7.67;;;;;;;-141.97;100.00;46168.16;5046086;28;20289;-87
2023/12/15 08:46:49;;;;;;;15.13;7.83;;;;;;;-141.97;100.00;46256.53;5047540;28;20172;-87
2023/12/15 08:49:14;;;;;;;20.57;10.73;;;;;;;-141.97;100.00;46223.88;5048717;28;20174;-88
2023/12/15 08:51:40;;;;;;;21.27;10.53;;;;;;;-141.97;100.00;46548.59;5063636;28;20622;-89
2023/12/15 08:54:06;;;;;;;24.10;14.20;;;;;;;-141.97;100.00;46204.66;5047824;28;20240;-88
2023/12/15 08:56:32;;;;;;;33.23;17.83;;;;;;;-141.97;100.00;46160.47;5048210;28;20209;-87
2023/12/15 08:58:58;;;;;;;21.37;10.57;;;;;;;-141.97;100.00;46262.28;5048282;28;20250;-88
2023/12/15 09:01:23;;;;;;;23.93;11.57;;;;;;;-141.97;100.00;46246.94;5047791;28;20177;-88
2023/12/15 09:03:49;;;;;;;22.53;11.13;;;;;;;-141.97;100.00;46273.81;5047898;28;20559;-89
2023/12/15 09:06:14;;;;;;;22.00;11.20;;;;;;;-141.97;100.00;46120.13;5041539;28;20564;-89
2023/12/15 09:08:40;;;;;;;26.10;11.57;;;;;;;-141.97;100.00;46068.25;5034015;28;20657;-89
2023/12/15 09:11:06;;;;;;;23.50;12.97;;;;;;;-141.97;100.00;46123.97;5033469;28;20163;-87
2023/12/15 09:13:33;;;;;;;31.13;14.70;;;;;;;-141.97;100.00;46231.56;5033468;28;20198;-89
2023/12/15 09:15:59;;;;;;;25.17;13.83;;;;;;;-141.97;100.00;46223.88;5042224;28;20627;-90
2023/12/15 09:18:24;;;;;;;35.83;20.50;;;;;;;-141.97;100.00;46243.09;5035084;28;20174;-89
2023/12/15 09:20:50;;;;;;;32.47;17.67;;;;;;;-141.97;100.00;46602.38;5032837;28;20240;-88
2023/12/15 09:23:15;;;;;;;171.90;54.83;;;;;;;-141.97;100.00;46218.09;5032888;28;20282;-88
2023/12/15 09:25:41;;;;;;;304.57;67.87;;;;;;;-141.97;100.00;46045.19;5032935;28;20253;-88
2023/12/15 09:28:07;;;;;;;152.37;45.67;;;;;;;-141.97;100.00;46587.00;5034831;28;20158;-89
2023/12/15 09:30:33;;;;;;;73.97;29.83;;;;;;;-141.97;100.00;46583.16;5033356;28;20235;-88
2023/12/15 09:32:58;;;;;;;28.07;13.73;;;;;;;-141.97;100.00;46262.28;5032258;28;20166;-90
2023/12/15 09:35:24;;;;;;;20.03;10.13;;;;;;;-141.97;100.00;46185.44;5031717;28;20203;-88
2023/12/15 09:37:50;;;;;;;33.10;13.40;;;;;;;-141.97;100.00;46229.63;5034361;28;20168;-88
2023/12/15 09:40:21;;;;;;;19.93;8.23;;;;;;;-141.97;100.00;46562.03;5033679;28;20615;-87
2023/12/15 09:42:47;;;;;;;18.30;8.70;;;;;;;-141.97;100.00;46677.31;5031606;28;20177;-89
2023/12/15 09:45:13;;;;;;;23.57;10.57;;;;;;;-141.97;100.00;46129.72;5032979;28;20162;-88
2023/12/15 09:47:45;;;;;;;26.73;15.13;;;;;;;-141.97;100.00;46600.47;5033985;28;20300;-88
2023/12/15 09:50:11;;;;;;;14.07;7.73;;;;;;;-141.97;100.00;46229.63;5033118;28;20235;-88
2023/12/15 09:52:39;;;;;;;18.13;9.23;;;;;;;-141.97;100.00;46600.47;5031871;28;20178;-88
2023/12/15 09:55:06;;;;;;;16.50;9.20;;;;;;;-141.97;100.00;46293.03;5031291;28;20621;-87
2023/12/15 09:57:33;;;;;;;17.00;9.63;;;;;;;-141.97;100.00;46145.09;5032805;28;20362;-87
2023/12/15 09:59:59;;;;;;;12.97;6.90;;;;;;;-141.97;100.00;46479.41;5034984;28;20177;-88
2023/12/15 10:02:25;;;;;;;16.53;9.03;;;;;;;-141.97;100.00;46148.94;5048020;28;20565;-88
2023/12/15 10:04:50;;;;;;;11.87;6.13;;;;;;;-141.97;100.00;46052.88;5032327;28;20170;-90
2023/12/15 10:07:15;;;;;;;12.57;6.97;;;;;;;-141.97;100.00;46285.34;5031365;28;20205;-88
2023/12/15 10:09:41;;;;;;;10.17;5.20;;;;;;;-141.97;100.00;46150.84;5032453;28;20168;-88
2023/12/15 10:12:10;;;;;;;4.80;3.10;;;;;;;-141.97;100.00;46314.16;5030233;28;20614;-89
2023/12/15 10:14:37;;;;;;;4.50;2.13;;;;;;;-141.97;100.00;46296.88;5034902;28;20217;-87
2023/12/15 10:17:10;;;;;;;7.67;3.90;;;;;;;-141.97;100.00;46139.34;5031318;28;20162;-87
2023/12/15 10:19:36;;;;;;;10.03;6.10;;;;;;;-141.97;100.00;46208.50;5033076;28;20172;-87
2023/12/15 10:22:02;;;;;;;17.30;8.33;;;;;;;-141.97;100.00;46131.66;5032240;28;20170;-87
2023/12/15 10:24:28;;;;;;;21.57;9.17;;;;;;;-141.97;100.00;46281.50;5031005;28;20170;-88
2023/12/15 10:26:53;;;;;;;14.97;6.93;;;;;;;-141.97;100.00;46210.41;5032226;28;20300;-89
2023/12/15 10:29:20;;;;;;;9.53;5.07;;;;;;;-141.97;100.00;46527.44;5031004;28;20329;-88
2023/12/15 10:31:49;;;;;;;4.73;3.30;;;;;;;-141.97;100.00;46239.25;5037751;28;20260;-87
2023/12/15 10:34:15;;;;;;;11.87;7.10;;;;;;;-141.97;100.00;46104.75;5032800;28;20214;-89
2023/12/15 10:36:44;;;;;;;19.47;11.43;;;;;;;-141.97;100.00;46631.22;5032786;28;20250;-89
2023/12/15 10:39:12;;;;;;;11.20;6.10;;;;;;;-141.97;100.00;46168.16;5032291;28;20167;-88
2023/12/15 10:41:39;;;;;;;6.90;4.40;;;;;;;-141.97;100.00;46185.44;5031032;28;20214;-88
2023/12/15 10:44:05;;;;;;;13.20;8.40;;;;;;;-141.97;100.00;46216.19;5031585;28;20227;-88
2023/12/15 10:46:31;;;;;;;11.37;7.43;;;;;;;-141.97;100.00;46562.03;5032079;28;20166;-89
2023/12/15 10:48:59;;;;;;;7.63;4.30;;;;;;;-141.97;100.00;46127.81;5031198;28;20173;-87
2023/12/15 10:51:25;;;;;;;15.10;8.80;;;;;;;-141.97;100.00;46554.34;5030521;28;20165;-87
2023/12/15 10:53:53;;;;;;;9.17;5.43;;;;;;;-141.97;100.00;46262.28;5038616;28;20302;-89
2023/12/15 10:56:18;;;;;;;6.17;4.10;;;;;;;-141.97;100.00;46147.03;5034780;28;20158;-87
2023/12/15 10:58:44;;;;;;;25.77;13.07;;;;;;;-141.97;100.00;46293.03;5031049;28;20661;-87
2023/12/15 11:01:11;;;;;;;12.87;7.40;;;;;;;-141.97;100.00;46389.09;5029674;28;20646;-88
2023/12/15 11:03:41;;;;;;;10.20;6.40;;;;;;;-141.97;100.00;46590.84;5029233;28;20178;-89
2023/12/15 11:06:06;;;;;;;11.03;6.47;;;;;;;-141.97;100.00;46147.03;5029607;28;20198;-88
2023/12/15 11:08:32;;;;;;;6.23;3.80;;;;;;;-141.97;100.00;46615.84;5028911;28;20174;-88
2023/12/15 11:10:57;;;;;;;10.83;6.47;;;;;;;-141.97;100.00;46212.34;5030642;28;20169;-87
2023/12/15 11:13:48;;;;;;;13.23;7.87;;;;;;;-141.97;100.00;46304.56;5029727;28;20231;-87
2023/12/15 11:16:13;;;;;;;15.40;6.60;;;;;;;-141.97;100.00;46685.00;5029360;28;20283;-88
2023/12/15 11:18:42;;;;;;;5.80;3.83;;;;;;;-141.97;100.00;46243.09;5029382;28;20194;-88
2023/12/15 11:21:11;;;;;;;10.93;6.10;;;;;;;-141.97;100.00;46289.19;5029644;28;20177;-88